KMDH Weather | Aviation | SIU

Home
Southern Illinois University

CONTACT

SIU.EDU

Aviation - Weather

College of Applied Sciences and Arts

KMDH Weather

NOTICE: Although all weather products are taken from the National Weather Service, this data should be used only as a supplement to a formal weather briefing.

Last Updated: Thursday, August 24th, 2017, 1:32 am
Information on this page is updated every 5 minutes.


METARS

KMDH 240552Z AUTO 00000KT 10SM CLR 14/14 A3005 RMK AO2 SLP173 T01390139 10239

KMDH 240452Z AUTO 00000KT 10SM CLR 15/14 A3005 RMK AO2 SLP173 T01500144

KMDH 240352Z AUTO 00000KT 10SM CLR 16/15 A3005 RMK AO2 SLP172 T01560150

KMWA 240615Z AUTO 00000KT 10SM CLR 15/15 A3006 RMK AO2

KMWA 240555Z AUTO 00000KT 10SM CLR 15/15 A3005 RMK AO2

KMWA 240535Z AUTO 00000KT 10SM CLR 16/15 A3006 RMK AO2

KMWA 240515Z AUTO 00000KT 10SM CLR 16/15 A3006 RMK AO2

KMWA 240455Z AUTO 00000KT 10SM CLR 16/16 A3006 RMK AO2

KMWA 240435Z AUTO 00000KT 10SM CLR 16/16 A3005 RMK AO2

KMWA 240415Z AUTO 00000KT 10SM CLR 16/16 A3005 RMK AO2

KMWA 240355Z AUTO 00000KT 10SM CLR 17/16 A3005 RMK AO2

KMWA 240335Z AUTO 00000KT 10SM CLR 17/16 A3005 RMK AO2

KCGI 240553Z AUTO 00000KT 10SM CLR 14/13 A3004 RMK AO2 SLP169 T01390128 10239

KCGI 240453Z AUTO 00000KT 10SM CLR 14/13 A3004 RMK AO2 SLP169 T01440133

KCGI 240353Z AUTO 00000KT 10SM CLR 15/13 A3003 RMK AO2 SLP168 T01500133

KSAR 240615Z AUTO 00000KT 10SM CLR 16/14 A3007 RMK AO2 T01550140

KSAR 240515Z AUTO 00000KT 10SM CLR 16/13 A3007 RMK AO2 T01610132

KSAR 240455Z AUTO 00000KT 10SM CLR 16/13 A3006 RMK AO2 T01620129

KSAR 240435Z AUTO 00000KT 10SM CLR 16/13 A3006 RMK AO2 T01610129

KSAR 240415Z AUTO 00000KT 10SM CLR 16/13 A3006 RMK AO2 T01640130

KSAR 240355Z AUTO 00000KT 10SM CLR 17/13 A3006 RMK AO2 T01710127 402550142

KSAR 240335Z AUTO 00000KT 10SM CLR 17/13 A3006 RMK AO2 T01680130

KFAM 240556Z AUTO 00000KT 10SM CLR 14/13 A3008 RMK AO2 SLP179 T01440133 10233

KFAM 240456Z AUTO 00000KT 10SM CLR 14/14 A3008 RMK AO2 SLP179 T01440139

KFAM 240356Z AUTO 00000KT 10SM CLR 16/14 A3008 RMK AO2 SLP178 T01560144

KMVN 240603Z AUTO 00000KT 4SM BR 13/13 A3005 RMK AO2 TSNO $

KMVN 240556Z AUTO 00000KT 2 1/2SM BR 13/13 A3006 RMK AO2 VIS 1 1/4V5 SLP175

KMVN 240553Z AUTO 00000KT 2SM BR 13/13 A3006 RMK AO2 VIS 1V5 $

KMVN 240548Z AUTO 00000KT 1SM BR 13/13 A3006 RMK AO2 $

KMVN 240524Z AUTO 00000KT 4SM BR 13/13 A3006 RMK AO2 $

KMVN 240513Z AUTO 00000KT 1 3/4SM BR 13/13 A3005 RMK AO2

KMVN 240456Z AUTO 00000KT 10SM 14/13 A3006 RMK AO2 SLP175 T01390133 402560128 $

KMVN 240356Z AUTO 00000KT 5SM BR 14/14 A3005 RMK AO2 SLP174 T01390139 $

KHSB 240615Z AUTO 00000KT 10SM CLR 15/14 A3005 RMK AO2 T01460135

KCIR 240615Z AUTO 00000KT 10SM CLR 15/13 A3004 RMK AO2 T01450133

KPAH 240553Z AUTO 00000KT 10SM CLR 15/13 A3003 RMK AO2 SLP165 T01500133 10256

KPOF 240553Z AUTO 00000KT 10SM CLR 15/14 A3003 RMK AO2 SLP168 T01500144 10250

KFAM 240556Z AUTO 00000KT 10SM CLR 14/13 A3008 RMK AO2 SLP179 T01440133 10233

KBLV 240558Z AUTO 00000KT 10SM CLR 15/13 A3007 RMK AO2 SLP183 T01520133 10243

KSUS 240554Z AUTO 25003KT 10SM CLR 15/14 A3006 RMK AO2 SLP174 T01500144 10250

KCPS 240553Z AUTO 00000KT 10SM CLR 15/13 A3006 RMK AO2 SLP175 T01500133 10250

KSTL 240551Z 25003KT 10SM CLR 18/14 A3007 RMK AO2 SLP172 T01830139 10244 20183

KTBN 240556Z AUTO 00000KT 10SM CLR 15/13 A3008 RMK AO2 SLP183 T01450130 10229

KVIH 240553Z AUTO 09003KT 10SM CLR 16/12 A3009 RMK AO2 SLP181 T01560122 10233

KENL 240615Z AUTO 00000KT 10SM CLR 14/14 A3005 RMK AO2 T01390136

KMTO 240553Z AUTO 27003KT 10SM CLR 15/13 A3005 RMK AO2 SLP171 T01500133 10222

KFWC 240615Z AUTO 00000KT 10SM CLR 14/14 A3004 RMK AO1 T01400138

KCUL 240615Z AUTO 00000KT 10SM CLR 14/14 A3003 RMK AO2 T01360135

KEVV 240554Z AUTO 00000KT 10SM CLR 16/13 A3004 RMK AO2 SLP170 T01560133 10239

KOWB 240556Z AUTO 00000KT 10SM CLR 18/13 A3003 RMK AO2 SLP177 T01780128 10244

KCEY 240615Z AUTO 00000KT 10SM CLR 16/15 A3003 RMK AO1

KHOP 240558Z AUTO 35004KT 10SM CLR 17/13 A3002 RMK AO2 SLP163 T01700134 10234

KMKL 240553Z AUTO 00000KT 3SM BR CLR 15/15 A3002 RMK AO2 SLP160 T01500150 10250

KDYR 240556Z AUTO 04004KT 10SM CLR 19/15 A3003 RMK AO2 SLP179 6//// T01890150

KARG 240615Z AUTO 34003KT 10SM CLR 18/14 A3003 RMK AO1

KJBR 240553Z AUTO 00000KT 10SM CLR 19/16 A3002 RMK AO2 SLP163 T01890156 10250

KUNO 240553Z AUTO 03004KT 10SM CLR 16/12 A3009 RMK AO2 SLP179 T01560122 10244

KALN 240615Z AUTO 00000KT 10SM CLR 14/14 A3006 RMK AO2 T01400140

KALN 240615Z AUTO 00000KT 10SM CLR 14/14 A3006 RMK AO2 T01400140

KCOU 240554Z AUTO 12004KT 10SM CLR 16/13 A3008 RMK AO2 SLP178 T01610133 10233

KSPI 240552Z AUTO 00000KT 10SM CLR 13/13 A3006 RMK AO2 SLP177 T01330128 10222

KAJG 240615Z AUTO 00000KT 10SM CLR 13/12 A3004 RMK AO2 T01290124

KM30 240615Z AUTO 00000KT 10SM CLR 15/14 A3004 RMK AO2 T01460135

KDEC 240554Z AUTO 00000KT 10SM CLR 16/13 A3006 RMK AO2 SLP174 T01560128 10233

KIJX 240615Z AUTO 00000KT 10SM CLR 13/12 A3007 RMK AO2 T01260117


TAFS

KEVV 240520Z 2406/2506 00000KT P6SM SKC

        FM241500 03006KT P6SM SCT040

        FM250000 01002KT P6SM FEW120 BKN250

KCGI 240520Z 2406/2506 00000KT P6SM SKC

        FM240800 00000KT 5SM BR BCFG SKC

        FM241300 04003KT P6SM SKC

        FM241500 05007KT P6SM FEW040

        FM250000 VRB02KT P6SM FEW120 BKN250

KPAH 240520Z 2406/2506 00000KT P6SM SKC

        FM241500 04007KT P6SM FEW040

        FM250000 02003KT P6SM FEW120 BKN250

KSPI 240527Z 2406/2506 34004KT P6SM SKC

        FM241600 04005KT P6SM FEW050

        FM250000 04005KT P6SM SKC

KSTL 240530Z 2406/2512 VRB03KT P6SM SKC

KDEC 240527Z 2406/2506 35005KT P6SM SKC

        FM241600 03005KT P6SM FEW050

        FM250000 04005KT P6SM SKC

KOWB 240520Z 2406/2506 00000KT P6SM SKC

        FM241500 04006KT P6SM SCT040

        FM250000 02002KT P6SM FEW120 BKN250

KSUS 240530Z 2406/2506 VRB03KT P6SM SKC

TAF KBLV 240000Z 2400/2506 35006KT 9999 FEW090 QNH3004INS TX26/2420Z TN12/2411Z


Winds Aloft

VALID 240600Z FOR USE 0200-0900Z. TEMPS NEG ABV 24000

FT 3000 6000 9000 12000 18000 24000 30000 34000 39000
CGI04109900+143414+113520+053028-073034-20293737293946295451
EVV02109900+113217+093322+033032-082944-20294636284046284153
SPI36083410+093218+083227+023137-093041-21304736304947294953
STL03053607+123215+103123+043135-093046-20304736304746294553



Pilot Reports

HOP UA /OV HOP300023/TM 0114/FL105/TP BE55/SK SKC/TA 15/TB NEG/RM SMTH



Area Forecast

000

FAUS43 KKCI 240145

FA3W

CHIC FA 240145

SYNOPSIS AND VFR CLDS/WX

SYNOPSIS VALID UNTIL 242000

CLDS/WX VALID UNTIL 241400...OTLK VALID 241400-242000

ND SD NE KS MN IA MO WI LM LS MI LH IL IN KY

.

SEE AIRMET SIERRA FOR IFR CONDS AND MTN OBSCN.

TS IMPLY SEV OR GTR TURB SEV ICE LLWS AND IFR CONDS.

NON MSL HGTS DENOTED BY AGL OR CIG.

.

SYNOPSIS...02Z RDG OF HIGH PRES PREVAILING ACRS THE FA AREA. STNR

FNT ALG A TBE-AKO-BFF-30W MLS LN. LTLCG EXPD DURG THE PD.

.

ND

WRN-S CNTRL...SKC. OTLK...VFR.

N CNTRL...SCT100. 11Z SCT060 SCT110. OTLK...VFR.

NERN...SCT110. OTLK...VFR.

SERN...BKN-SCT100 TOPS 150. 06Z SCT120. OTLK...VFR THRUT EXC TIL

17Z IFR CIG WRN SXNS.

.

SD

W THIRD...SCT CI. OTLK...VFR.

CNTRL THIRD...SKC. 09Z OCNL SCT CI. OTLK...VFR.

E THIRD...SCT080. OTLK...VFR.

.

NE

PNHDL...SCT-BKN150 TOPS 170 BKN CI. OTLK...VFR.

CNTRL-ERN...SKC. OCNL SCT CI. OTLK...VFR.

.

KS

WRN QTR...SCT CI. OTLK...VFR.

RMNDR...SKC. OTLK...VFR.

.

MN

NWRN...BKN080-100 TOPS 130. BECMG 0407 SCT120. OTLK...VFR.

NERN...BKN070-080 TOPS 170. BECMG 0407 SCT110 SCT150. OTLK...VFR.

CNTRL THIRD...BKN-SCT060 LYRD FL220. TIL 09Z WDLY SCT -SHRA. 09Z

OCNL VIS 5SM BR. OTLK...VFR.

SRN THIRD...SCT060 SCT120. BECMG 0407 SCT-BKN060 BKN100 TOPS

FL180. WDLY SCT -SHRA. OTLK...VFR THRUT...SHRA SERN SXNS.

.

IA

N HLF...SCT060 SCT100. BECMG 0407 SCT060 BKN080-100. WDLY SCT

-SHRA. OTLK...VFR SHRA 16Z VFR.

SW QTR...SKC. OCNL SCT120 SCT CI. OTLK...VFR.

SE QTR...SKC. 06Z BKN-SCT120 TOPS 150. OTLK...VFR.

.

MO

N HLF...SKC. OTLK...VFR.

S HLF...SKC. 08Z OCNL VIS 5SM BR ERN SXNS. OTLK...VFR THRUT.

.

WI

N HLF...SCT060 SCT-BKN100 TOPS 150. WDLY SCT -SHRA NWRN SXNS.

BECMG 0508 SCT-BKN060 BKN090 TOPS 150. OCNL VIS 4SM BR NWRN SXNS.

WDLY SCT -SHRA. OTLK...VFR THRUT.

SCT060 SCT CI. BECMG 0710 SCT-BKN050 BKN090 TOPS 150. WDLY SCT

-SHRA. OTLK...VFR SHRA 16Z VFR.

.

LS UPR MI

SCT CI. OCNL SCT040-050. OTLK...VFR.

.

LM LWR MI LH

N HLF...BKN-SCT045 TOPS 070. OTLK...VFR.

SW QTR...SCT050. BECMG 0609 SCT050 SCT-BKN150 TOPS FL230.

OTLK...VFR.

SE QTR...SCT070 SCT150. 10Z SCT030 SCT-BKN150 TOPS 170 BKN CI.

OTLK...VFR.

.

IL

NRN QTR...SKC. OCNL SCT060. BECMG 0811 SCT060 BKN100 TOPS 150.

WDLY SCT -SHRA ERN SXNS. OTLK...VFR THRUT...SHRA ERN SXNS.

RMNDR...SKC. 08Z OCNL VIS 5SM BR SRN SXNS. OTLK...VFR THRUT.

.

IN

NRN-CNTRL...SCT060-070. 04Z SKC. OTLK...VFR.

SRN...SKC. OTLK...VFR.

.

KY

WRN...SKC. OTLK...VFR.

N CNTRL-NERN...SCT150. OTLK...VFR.

S CNTRL-SERN...SCT-BKN CI. BECMG 0911 VIS 3SM BR. OTLK...VFR.

....



Significant Weather

WAUS43 KKCI 240245 CHIT WA 240245 AIRMET TANGO FOR TURB VALID UNTIL 240900 AIRMET TURB...NE KS IA MO FROM 30SW ANW TO 20S OVR TO OSW TO 50W LBL TO GLD TO BFF TO 30SW ANW MOD TURB BTN FL300 AND FL410. CONDS DVLPG 06-09Z. CONDS CONTG BYD 09Z THRU 15Z. OTLK VALID 0900-1500Z...TURB NE KS IA MO OK TX AR BOUNDED BY 50NNW BFF-30W ANW-20NNW OVR-40WNW FAM-20SSE ARG-40NNW LIT-40W OSW-20E TCC-30ESE TBE-50W LBL-GLD-50NNW BFF MOD TURB BTN FL300 AND FL410. CONDS CONTG THRU 15Z.